Time;durP1;ratioP1;P1;durP2;ratioP2;P2;SDS_P1;SDS_P2;PMS_P1;PMS_P2;Temp;Humidity;BMP_temperature;BMP_pressure;BME280_temperature;BME280_humidity;BME280_pressure;Samples;Min_cycle;Max_cycle;Signal;HPM_P1;HPM_P2
2022/09/30 00:01:18;;;;;;;0.00;0.00;;;;;;;;;;5108022;27;20049;-78
2022/09/30 00:03:47;;;;;;;0.93;0.93;;;;;;;;;;5118916;27;20035;-78
2022/09/30 00:06:13;;;;;;;0.75;0.65;;;;;;;;;;5096214;28;20474;-78
2022/09/30 00:08:40;;;;;;;0.00;0.00;;;;;;;;;;5103244;28;20028;-78
2022/09/30 00:11:15;;;;;;;1.17;0.43;;;;;;;;;;5107078;28;20020;-77
2022/09/30 00:13:42;;;;;;;0.75;0.75;;;;;;;;;;5080446;28;20437;-79
2022/09/30 00:16:09;;;;;;;3.08;2.90;;;;;;;;;;5100560;28;20031;-78
2022/09/30 00:18:36;;;;;;;11.45;10.27;;;;;;;;;;5102030;28;20020;-78
2022/09/30 00:21:03;;;;;;;0.08;0.05;;;;;;;;;;5082076;28;20016;-77
2022/09/30 00:23:29;;;;;;;0.00;0.00;;;;;;;;;;5104115;28;20024;-77
2022/09/30 00:26:00;;;;;;;0.20;0.20;;;;;;;;;;5097623;28;20035;-78
2022/09/30 00:28:27;;;;;;;0.40;0.40;;;;;;;;;;5129049;27;20016;-77
2022/09/30 00:30:53;;;;;;;0.65;0.65;;;;;;;;;;5092235;27;20024;-77
2022/09/30 00:33:20;;;;;;;0.15;0.15;;;;;;;;;;5098411;28;20062;-77
2022/09/30 00:35:47;;;;;;;0.00;0.00;;;;;;;;;;5101481;28;20024;-77
2022/09/30 00:38:13;;;;;;;0.20;0.20;;;;;;;;;;5092305;27;20016;-77
2022/09/30 00:40:39;;;;;;;0.38;0.38;;;;;;;;;;5089057;28;20413;-77
2022/09/30 00:43:13;;;;;;;0.63;0.57;;;;;;;;;;5101679;28;20024;-77
2022/09/30 00:45:43;;;;;;;0.00;0.00;;;;;;;;;;5101605;28;20107;-77
2022/09/30 00:48:12;;;;;;;0.00;0.00;;;;;;;;;;5090861;28;20103;-78
2022/09/30 00:50:41;;;;;;;1.05;0.98;;;;;;;;;;5101929;28;20389;-77
2022/09/30 00:53:20;;;;;;;0.00;0.00;;;;;;;;;;5107974;28;20116;-78
2022/09/30 00:55:46;;;;;;;0.00;0.00;;;;;;;;;;5103372;28;20474;-77
2022/09/30 00:58:16;;;;;;;1.00;1.00;;;;;;;;;;5085156;28;20042;-76
2022/09/30 01:00:42;;;;;;;0.10;0.10;;;;;;;;;;5095114;28;20024;-76
2022/09/30 01:03:09;;;;;;;0.00;0.00;;;;;;;;;;5095890;28;20481;-77
2022/09/30 01:05:35;;;;;;;0.43;0.28;;;;;;;;;;5081950;28;20432;-76
2022/09/30 01:08:03;;;;;;;0.00;0.00;;;;;;;;;;5099304;28;20031;-76
2022/09/30 01:10:29;;;;;;;0.00;0.00;;;;;;;;;;5115114;28;20016;-76
2022/09/30 01:12:56;;;;;;;0.00;0.00;;;;;;;;;;5115294;28;20031;-76
2022/09/30 01:15:24;;;;;;;0.00;0.00;;;;;;;;;;5106175;28;20031;-75
2022/09/30 01:17:55;;;;;;;0.00;0.00;;;;;;;;;;5115195;28;20420;-76
2022/09/30 01:20:36;;;;;;;0.00;0.00;;;;;;;;;;5093944;28;20028;-77
2022/09/30 01:23:09;;;;;;;0.00;0.00;;;;;;;;;;5106298;28;20062;-76
2022/09/30 01:25:54;;;;;;;0.00;0.00;;;;;;;;;;5096248;28;20094;-76
2022/09/30 01:28:39;;;;;;;0.00;0.00;;;;;;;;;;5096690;28;20020;-77
2022/09/30 01:31:14;;;;;;;0.10;0.10;;;;;;;;;;5115698;28;20030;-77
2022/09/30 01:33:56;;;;;;;0.00;0.00;;;;;;;;;;5114731;28;20094;-76
2022/09/30 01:36:25;;;;;;;0.00;0.00;;;;;;;;;;5107058;28;20072;-76
2022/09/30 01:38:58;;;;;;;0.00;0.00;;;;;;;;;;5083049;28;20115;-76
2022/09/30 01:41:34;;;;;;;0.00;0.00;;;;;;;;;;5083851;28;20056;-77
2022/09/30 01:44:01;;;;;;;0.10;0.10;;;;;;;;;;5097652;28;20035;-77
2022/09/30 01:46:28;;;;;;;0.00;0.00;;;;;;;;;;5082616;28;20115;-78
2022/09/30 01:49:04;;;;;;;0.10;0.10;;;;;;;;;;5086531;28;20031;-78
2022/09/30 01:51:35;;;;;;;0.00;0.00;;;;;;;;;;5112063;28;20039;-78
2022/09/30 01:54:27;;;;;;;0.00;0.00;;;;;;;;;;5108217;28;20031;-78
2022/09/30 01:56:57;;;;;;;0.00;0.00;;;;;;;;;;5087005;28;20032;-78
2022/09/30 01:59:31;;;;;;;0.03;0.03;;;;;;;;;;5097463;28;20100;-78
2022/09/30 02:02:00;;;;;;;3.20;1.75;;;;;;;;;;5096264;28;20036;-78
2022/09/30 02:04:31;;;;;;;0.00;0.00;;;;;;;;;;5109110;28;20056;-76
2022/09/30 02:06:59;;;;;;;0.00;0.00;;;;;;;;;;5104546;27;20102;-77
2022/09/30 02:09:32;;;;;;;0.75;0.65;;;;;;;;;;5101403;28;20387;-77
2022/09/30 02:11:59;;;;;;;0.20;0.15;;;;;;;;;;5104877;28;20474;-77
2022/09/30 02:14:33;;;;;;;2.53;2.08;;;;;;;;;;5103751;28;20030;-77
2022/09/30 02:17:06;;;;;;;0.00;0.00;;;;;;;;;;5107635;27;20020;-77
2022/09/30 02:19:35;;;;;;;1.35;0.95;;;;;;;;;;5106986;27;20024;-78
2022/09/30 02:22:05;;;;;;;0.00;0.00;;;;;;;;;;5100452;28;20491;-75
2022/09/30 02:24:37;;;;;;;3.63;0.68;;;;;;;;;;5085299;28;20088;-75
2022/09/30 02:27:10;;;;;;;0.00;0.00;;;;;;;;;;5099401;28;20076;-75
2022/09/30 02:29:39;;;;;;;1.52;1.35;;;;;;;;;;5102362;28;20462;-75
2022/09/30 02:32:09;;;;;;;0.45;0.45;;;;;;;;;;5075180;28;20385;-74
2022/09/30 02:34:38;;;;;;;1.10;0.43;;;;;;;;;;5101408;27;20102;-77
2022/09/30 02:37:07;;;;;;;0.28;0.28;;;;;;;;;;5110926;28;20027;-76
2022/09/30 02:39:49;;;;;;;0.22;0.20;;;;;;;;;;5104528;28;20035;-75
2022/09/30 02:42:21;;;;;;;0.10;0.10;;;;;;;;;;5086662;27;20039;-75
2022/09/30 02:44:49;;;;;;;0.00;0.00;;;;;;;;;;5100395;28;20558;-73
2022/09/30 02:47:26;;;;;;;0.90;0.90;;;;;;;;;;5101979;28;20088;-73
2022/09/30 02:50:01;;;;;;;1.08;1.08;;;;;;;;;;5089770;28;20026;-75
2022/09/30 02:52:54;;;;;;;0.15;0.10;;;;;;;;;;5103435;28;20024;-74
2022/09/30 02:55:26;;;;;;;0.00;0.00;;;;;;;;;;5070577;28;20143;-71
2022/09/30 02:58:04;;;;;;;0.00;0.00;;;;;;;;;;5099246;28;20027;-74
2022/09/30 03:00:31;;;;;;;0.00;0.00;;;;;;;;;;5099567;28;20396;-75
2022/09/30 03:03:01;;;;;;;0.13;0.13;;;;;;;;;;5103318;28;20080;-74
2022/09/30 03:05:28;;;;;;;0.00;0.00;;;;;;;;;;5097782;28;21387;-75
2022/09/30 03:07:55;;;;;;;0.00;0.00;;;;;;;;;;5106119;28;20024;-74
2022/09/30 03:10:22;;;;;;;0.00;0.00;;;;;;;;;;5099981;28;20020;-74
2022/09/30 03:12:51;;;;;;;0.00;0.00;;;;;;;;;;5086170;28;20030;-75
2022/09/30 03:15:20;;;;;;;0.00;0.00;;;;;;;;;;5113656;28;21006;-75
2022/09/30 03:18:19;;;;;;;0.00;0.00;;;;;;;;;;5117012;28;20019;-75
2022/09/30 03:20:52;;;;;;;10.77;10.30;;;;;;;;;;5074964;28;20039;-75
2022/09/30 03:23:28;;;;;;;0.00;0.00;;;;;;;;;;5110904;28;20097;-74
2022/09/30 03:26:16;;;;;;;0.20;0.20;;;;;;;;;;5099523;28;20159;-76
2022/09/30 03:28:55;;;;;;;0.00;0.00;;;;;;;;;;5094612;28;20089;-76
2022/09/30 03:31:47;;;;;;;0.28;0.28;;;;;;;;;;5095619;28;20487;-77
2022/09/30 03:34:28;;;;;;;0.00;0.00;;;;;;;;;;5082589;28;20043;-78
2022/09/30 03:37:01;;;;;;;0.00;0.00;;;;;;;;;;5085342;28;20055;-77
2022/09/30 03:39:43;;;;;;;0.00;0.00;;;;;;;;;;5097237;28;20020;-76
2022/09/30 03:42:19;;;;;;;0.10;0.10;;;;;;;;;;5096845;28;20533;-79
2022/09/30 03:45:07;;;;;;;0.00;0.00;;;;;;;;;;5094118;28;20058;-78
2022/09/30 03:47:35;;;;;;;0.35;0.35;;;;;;;;;;5098726;28;20015;-78
2022/09/30 03:50:03;;;;;;;2.88;1.08;;;;;;;;;;5109726;27;20069;-76
2022/09/30 03:52:33;;;;;;;4.63;1.05;;;;;;;;;;5101523;28;20604;-79
2022/09/30 03:55:01;;;;;;;0.15;0.15;;;;;;;;;;5101804;27;20031;-76
2022/09/30 03:57:28;;;;;;;0.00;0.00;;;;;;;;;;5106976;28;20042;-76
2022/09/30 03:59:58;;;;;;;0.00;0.00;;;;;;;;;;5088370;28;20126;-75
2022/09/30 04:02:25;;;;;;;0.17;0.13;;;;;;;;;;5090545;28;20127;-76
2022/09/30 04:04:51;;;;;;;1.00;0.35;;;;;;;;;;5100055;28;20081;-75
2022/09/30 04:07:18;;;;;;;3.83;1.98;;;;;;;;;;5101842;27;20100;-76
2022/09/30 04:09:44;;;;;;;6.78;2.83;;;;;;;;;;5103789;28;20036;-75
2022/09/30 04:12:10;;;;;;;6.40;2.90;;;;;;;;;;5109254;27;20090;-77
2022/09/30 04:14:37;;;;;;;0.00;0.00;;;;;;;;;;5107191;28;20027;-76
2022/09/30 04:17:04;;;;;;;0.50;0.50;;;;;;;;;;5096155;28;20067;-77
2022/09/30 04:19:31;;;;;;;1.10;0.80;;;;;;;;;;5084946;28;20027;-78
2022/09/30 04:21:57;;;;;;;0.17;0.17;;;;;;;;;;5080794;28;20374;-78
2022/09/30 04:24:24;;;;;;;0.00;0.00;;;;;;;;;;5082559;28;20039;-78
2022/09/30 04:26:51;;;;;;;0.00;0.00;;;;;;;;;;5104924;28;20028;-76
2022/09/30 04:29:17;;;;;;;0.10;0.10;;;;;;;;;;5101389;28;20043;-75
2022/09/30 04:31:44;;;;;;;0.03;0.00;;;;;;;;;;5079194;28;20063;-75
2022/09/30 04:34:12;;;;;;;11.25;10.77;;;;;;;;;;5100360;28;20090;-76
2022/09/30 04:36:39;;;;;;;0.90;0.90;;;;;;;;;;5100681;27;20482;-76
2022/09/30 04:39:05;;;;;;;4.00;2.17;;;;;;;;;;5101706;27;20051;-75
2022/09/30 04:41:33;;;;;;;0.00;0.00;;;;;;;;;;5089387;28;20051;-74
2022/09/30 04:44:04;;;;;;;0.10;0.10;;;;;;;;;;5105454;27;20384;-73
2022/09/30 04:46:31;;;;;;;1.17;1.08;;;;;;;;;;5105437;28;20107;-73
2022/09/30 04:48:57;;;;;;;0.30;0.10;;;;;;;;;;5110439;27;20100;-73
2022/09/30 04:51:24;;;;;;;0.65;0.57;;;;;;;;;;5105555;27;20092;-73
2022/09/30 04:53:50;;;;;;;1.35;1.27;;;;;;;;;;5097550;28;20024;-75
2022/09/30 04:56:17;;;;;;;3.13;2.92;;;;;;;;;;5084127;28;20032;-75
2022/09/30 04:58:43;;;;;;;0.03;0.03;;;;;;;;;;5101605;28;20028;-76
2022/09/30 05:01:11;;;;;;;0.10;0.10;;;;;;;;;;5082703;27;20176;-76
2022/09/30 05:03:37;;;;;;;0.10;0.10;;;;;;;;;;5098334;27;20492;-76
2022/09/30 05:06:05;;;;;;;0.17;0.17;;;;;;;;;;5101729;27;20611;-73
2022/09/30 05:08:32;;;;;;;0.00;0.00;;;;;;;;;;5112434;27;20518;-75
2022/09/30 05:11:09;;;;;;;0.00;0.00;;;;;;;;;;5108916;27;20026;-75
2022/09/30 05:13:37;;;;;;;0.00;0.00;;;;;;;;;;5098555;28;20062;-75
2022/09/30 05:16:03;;;;;;;0.00;0.00;;;;;;;;;;5101785;27;20059;-74
2022/09/30 05:18:30;;;;;;;0.00;0.00;;;;;;;;;;5074731;27;20031;-74
2022/09/30 05:20:57;;;;;;;0.10;0.10;;;;;;;;;;5101332;27;20031;-74
2022/09/30 05:23:24;;;;;;;0.10;0.10;;;;;;;;;;5086852;27;20050;-74
2022/09/30 05:25:51;;;;;;;0.00;0.00;;;;;;;;;;5081568;28;20024;-77
2022/09/30 05:28:17;;;;;;;0.00;0.00;;;;;;;;;;5080546;28;20779;-76
2022/09/30 05:30:44;;;;;;;0.00;0.00;;;;;;;;;;5083329;28;20028;-76
2022/09/30 05:33:11;;;;;;;0.75;0.28;;;;;;;;;;5102907;27;20497;-76
2022/09/30 05:35:39;;;;;;;0.30;0.30;;;;;;;;;;5098831;28;20059;-77
2022/09/30 05:38:05;;;;;;;0.57;0.55;;;;;;;;;;5100903;27;20044;-75
2022/09/30 05:40:31;;;;;;;0.10;0.10;;;;;;;;;;5085157;28;20450;-73
2022/09/30 05:42:58;;;;;;;0.20;0.20;;;;;;;;;;5086280;28;20425;-76
2022/09/30 05:45:25;;;;;;;0.00;0.00;;;;;;;;;;5089859;28;20031;-76
2022/09/30 05:47:52;;;;;;;0.00;0.00;;;;;;;;;;5097664;28;20024;-76
2022/09/30 05:50:19;;;;;;;0.00;0.00;;;;;;;;;;5099357;28;20086;-76
2022/09/30 05:52:46;;;;;;;0.00;0.00;;;;;;;;;;5089241;28;20036;-77
2022/09/30 05:55:12;;;;;;;0.00;0.00;;;;;;;;;;5114248;27;20024;-77
2022/09/30 05:57:39;;;;;;;0.00;0.00;;;;;;;;;;5119107;27;20075;-74
2022/09/30 06:00:06;;;;;;;0.00;0.00;;;;;;;;;;5122825;27;20039;-78
2022/09/30 06:02:32;;;;;;;0.00;0.00;;;;;;;;;;5112392;27;20123;-77
2022/09/30 06:04:58;;;;;;;0.00;0.00;;;;;;;;;;5087782;28;20047;-77
2022/09/30 06:07:25;;;;;;;0.45;0.45;;;;;;;;;;5107605;27;20038;-77
2022/09/30 06:09:51;;;;;;;0.00;0.00;;;;;;;;;;5116576;27;20026;-76
2022/09/30 06:12:17;;;;;;;0.25;0.25;;;;;;;;;;5106496;27;20026;-78
2022/09/30 06:14:44;;;;;;;0.00;0.00;;;;;;;;;;5120833;27;20042;-76
2022/09/30 06:17:13;;;;;;;1.30;1.20;;;;;;;;;;5132617;27;20096;-77
2022/09/30 06:19:39;;;;;;;1.98;1.88;;;;;;;;;;5105486;28;20534;-76
2022/09/30 06:22:05;;;;;;;0.93;0.88;;;;;;;;;;5092923;28;20032;-78
2022/09/30 06:24:32;;;;;;;0.00;0.00;;;;;;;;;;5104890;28;20127;-77
2022/09/30 06:26:59;;;;;;;0.80;0.80;;;;;;;;;;5100934;28;20024;-78
2022/09/30 06:29:25;;;;;;;0.10;0.10;;;;;;;;;;5107389;27;20548;-78
2022/09/30 06:31:51;;;;;;;0.28;0.28;;;;;;;;;;5107096;27;20089;-78
2022/09/30 06:34:18;;;;;;;0.00;0.00;;;;;;;;;;5082320;28;20385;-76
2022/09/30 06:36:44;;;;;;;0.00;0.00;;;;;;;;;;5104251;27;20529;-73
2022/09/30 06:39:11;;;;;;;3.42;1.27;;;;;;;;;;5104235;28;20067;-76
2022/09/30 06:41:42;;;;;;;0.10;0.10;;;;;;;;;;5097412;27;20040;-75
2022/09/30 06:44:08;;;;;;;0.00;0.00;;;;;;;;;;5101744;27;20032;-78
2022/09/30 06:46:35;;;;;;;0.25;0.10;;;;;;;;;;5104939;28;20020;-78
2022/09/30 06:49:01;;;;;;;0.13;0.13;;;;;;;;;;5102203;28;20080;-77
2022/09/30 06:51:31;;;;;;;0.10;0.10;;;;;;;;;;5102893;27;20019;-78
2022/09/30 06:53:58;;;;;;;0.35;0.32;;;;;;;;;;5089402;28;20044;-77
2022/09/30 06:56:24;;;;;;;0.47;0.45;;;;;;;;;;5098188;27;20381;-77
2022/09/30 06:58:51;;;;;;;0.00;0.00;;;;;;;;;;5089834;28;20101;-77
2022/09/30 07:01:19;;;;;;;0.00;0.00;;;;;;;;;;5082208;28;20031;-78
2022/09/30 07:03:46;;;;;;;0.00;0.00;;;;;;;;;;5107261;27;20032;-79
2022/09/30 07:06:13;;;;;;;0.00;0.00;;;;;;;;;;5081980;28;20028;-77
2022/09/30 07:08:40;;;;;;;0.00;0.00;;;;;;;;;;5100623;28;20073;-76
2022/09/30 07:11:11;;;;;;;0.47;0.38;;;;;;;;;;5097709;28;20541;-72
2022/09/30 07:13:38;;;;;;;0.00;0.00;;;;;;;;;;5073486;28;20059;-73
2022/09/30 07:16:05;;;;;;;0.10;0.10;;;;;;;;;;5093843;28;20120;-76
2022/09/30 07:18:31;;;;;;;0.00;0.00;;;;;;;;;;5076426;28;20027;-76
2022/09/30 07:20:57;;;;;;;0.00;0.00;;;;;;;;;;5096730;28;20084;-76
2022/09/30 07:23:27;;;;;;;0.20;0.20;;;;;;;;;;5103347;28;20170;-77
2022/09/30 07:25:59;;;;;;;1.30;1.27;;;;;;;;;;5083116;28;20023;-76
2022/09/30 07:28:30;;;;;;;1.65;1.55;;;;;;;;;;5098579;28;20024;-76
2022/09/30 07:30:57;;;;;;;0.00;0.00;;;;;;;;;;5101773;27;20020;-75
2022/09/30 07:33:27;;;;;;;0.00;0.00;;;;;;;;;;5100563;28;20023;-75
2022/09/30 07:35:54;;;;;;;0.32;0.32;;;;;;;;;;5084581;27;20023;-75
2022/09/30 07:38:21;;;;;;;0.55;0.00;;;;;;;;;;5065829;28;20056;-78
2022/09/30 07:41:02;;;;;;;0.30;0.30;;;;;;;;;;5075104;28;20063;-75
2022/09/30 07:43:39;;;;;;;0.20;0.20;;;;;;;;;;5096511;28;20111;-75
2022/09/30 07:46:19;;;;;;;0.00;0.00;;;;;;;;;;5090398;27;20034;-76
2022/09/30 07:48:48;;;;;;;0.90;0.90;;;;;;;;;;5090010;28;20024;-75
2022/09/30 07:51:26;;;;;;;0.00;0.00;;;;;;;;;;5096717;27;20031;-76
2022/09/30 07:53:54;;;;;;;0.00;0.00;;;;;;;;;;5090920;27;20406;-74
2022/09/30 07:56:21;;;;;;;0.00;0.00;;;;;;;;;;5093902;28;20019;-77
2022/09/30 07:58:48;;;;;;;0.47;0.35;;;;;;;;;;5107486;27;20020;-78
2022/09/30 08:01:15;;;;;;;0.00;0.00;;;;;;;;;;5105053;27;20103;-77
2022/09/30 08:03:43;;;;;;;2.90;2.20;;;;;;;;;;5103260;28;20024;-80
2022/09/30 08:06:14;;;;;;;1.02;0.52;;;;;;;;;;5096943;27;20027;-78
2022/09/30 08:08:40;;;;;;;0.03;0.03;;;;;;;;;;5090782;27;20031;-78
2022/09/30 08:11:07;;;;;;;0.00;0.00;;;;;;;;;;5074075;28;20058;-79
2022/09/30 08:13:33;;;;;;;0.57;0.57;;;;;;;;;;5095895;27;20475;-79
2022/09/30 08:15:59;;;;;;;0.00;0.00;;;;;;;;;;5090410;28;20367;-78
2022/09/30 08:18:27;;;;;;;0.38;0.38;;;;;;;;;;5066426;27;20031;-79
2022/09/30 08:20:53;;;;;;;0.00;0.00;;;;;;;;;;5091883;28;20032;-79
2022/09/30 08:23:20;;;;;;;0.22;0.20;;;;;;;;;;5099858;28;20065;-78
2022/09/30 08:25:46;;;;;;;0.00;0.00;;;;;;;;;;5084610;28;20391;-79
2022/09/30 08:28:13;;;;;;;0.05;0.05;;;;;;;;;;5105371;28;20047;-81
2022/09/30 08:30:40;;;;;;;0.20;0.20;;;;;;;;;;5113471;27;20031;-80
2022/09/30 08:33:06;;;;;;;0.00;0.00;;;;;;;;;;5108799;28;20031;-78
2022/09/30 08:35:35;;;;;;;0.00;0.00;;;;;;;;;;5105325;27;20036;-77
2022/09/30 08:38:01;;;;;;;0.52;0.52;;;;;;;;;;5088429;28;20065;-77
2022/09/30 08:40:29;;;;;;;0.80;0.80;;;;;;;;;;5102668;27;20046;-79
2022/09/30 08:42:58;;;;;;;0.45;0.20;;;;;;;;;;5105901;27;20026;-79
2022/09/30 08:45:36;;;;;;;0.00;0.00;;;;;;;;;;5103114;27;20024;-79
2022/09/30 08:48:14;;;;;;;0.50;0.17;;;;;;;;;;5084258;28;20024;-79
2022/09/30 08:50:40;;;;;;;0.10;0.10;;;;;;;;;;5083662;27;20630;-80
2022/09/30 08:53:13;;;;;;;0.00;0.00;;;;;;;;;;5102476;27;20027;-78
2022/09/30 08:55:41;;;;;;;0.00;0.00;;;;;;;;;;5082911;28;20047;-77
2022/09/30 08:58:15;;;;;;;0.55;0.47;;;;;;;;;;5108689;27;21477;-77
2022/09/30 09:00:42;;;;;;;0.55;0.55;;;;;;;;;;5087758;28;20031;-78
2022/09/30 09:03:11;;;;;;;0.13;0.13;;;;;;;;;;5099315;28;20035;-79
2022/09/30 09:05:57;;;;;;;0.00;0.00;;;;;;;;;;5104905;27;20031;-78
2022/09/30 09:08:26;;;;;;;0.20;0.20;;;;;;;;;;5112598;28;20035;-78
2022/09/30 09:11:11;;;;;;;0.32;0.32;;;;;;;;;;5098364;28;20076;-78
2022/09/30 09:13:53;;;;;;;0.20;0.20;;;;;;;;;;5104312;27;20449;-76
2022/09/30 09:16:55;;;;;;;0.00;0.00;;;;;;;;;;5076728;28;20040;-77
2022/09/30 09:19:25;;;;;;;0.00;0.00;;;;;;;;;;5006823;28;20107;-76
2022/09/30 09:21:56;;;;;;;0.20;0.20;;;;;;;;;;5068630;28;20389;-78
2022/09/30 09:24:33;;;;;;;0.00;0.00;;;;;;;;;;5108814;27;20028;-79
2022/09/30 09:27:00;;;;;;;0.10;0.10;;;;;;;;;;5079213;28;20034;-77
2022/09/30 09:29:45;;;;;;;0.05;0.05;;;;;;;;;;5097070;28;20031;-77
2022/09/30 09:32:16;;;;;;;0.77;0.10;;;;;;;;;;5105427;28;20373;-77
2022/09/30 09:34:43;;;;;;;0.00;0.00;;;;;;;;;;5104821;27;20083;-77
2022/09/30 09:37:15;;;;;;;0.32;0.22;;;;;;;;;;5099544;27;20074;-76
2022/09/30 09:39:50;;;;;;;0.00;0.00;;;;;;;;;;5107665;28;20033;-76
2022/09/30 09:42:16;;;;;;;0.00;0.00;;;;;;;;;;5098052;28;20128;-78
2022/09/30 09:44:50;;;;;;;0.00;0.00;;;;;;;;;;5098344;28;20024;-75
2022/09/30 09:47:18;;;;;;;0.00;0.00;;;;;;;;;;5102591;27;20107;-78
2022/09/30 09:49:45;;;;;;;0.00;0.00;;;;;;;;;;5105857;27;20025;-78
2022/09/30 09:52:12;;;;;;;0.52;0.52;;;;;;;;;;5087709;28;20051;-75
2022/09/30 09:54:42;;;;;;;1.65;0.80;;;;;;;;;;5102559;27;20065;-79
2022/09/30 09:57:13;;;;;;;0.20;0.10;;;;;;;;;;5103069;28;20051;-78
2022/09/30 09:59:58;;;;;;;0.10;0.10;;;;;;;;;;5103591;28;20443;-78
2022/09/30 10:02:30;;;;;;;0.00;0.00;;;;;;;;;;5099221;28;20031;-78
2022/09/30 10:05:00;;;;;;;0.00;0.00;;;;;;;;;;5108034;27;20024;-82
2022/09/30 10:07:32;;;;;;;0.00;0.00;;;;;;;;;;5105060;27;20020;-80
2022/09/30 10:10:08;;;;;;;0.00;0.00;;;;;;;;;;5107747;27;20024;-82
2022/09/30 10:12:34;;;;;;;6.70;1.25;;;;;;;;;;5107086;28;20477;-77
2022/09/30 10:15:03;;;;;;;5.10;0.73;;;;;;;;;;5107875;28;20030;-75
2022/09/30 10:17:38;;;;;;;0.28;0.28;;;;;;;;;;5103237;27;20082;-73
2022/09/30 10:20:06;;;;;;;0.50;0.20;;;;;;;;;;5098745;28;20035;-78
2022/09/30 10:22:34;;;;;;;0.03;0.03;;;;;;;;;;5101811;27;20095;-75
2022/09/30 10:25:18;;;;;;;0.13;0.10;;;;;;;;;;5100362;28;20028;-77
2022/09/30 10:27:53;;;;;;;0.00;0.00;;;;;;;;;;5103028;28;20024;-79
2022/09/30 10:30:35;;;;;;;0.00;0.00;;;;;;;;;;5083706;28;20021;-78
2022/09/30 10:33:05;;;;;;;0.00;0.00;;;;;;;;;;5100211;28;20040;-77
2022/09/30 10:35:31;;;;;;;0.00;0.00;;;;;;;;;;5098201;28;20419;-78
2022/09/30 10:37:59;;;;;;;0.22;0.15;;;;;;;;;;5099188;28;20024;-77
2022/09/30 10:40:30;;;;;;;0.00;0.00;;;;;;;;;;5096005;27;20518;-77
2022/09/30 10:42:56;;;;;;;0.00;0.00;;;;;;;;;;5105490;27;20036;-77
2022/09/30 10:45:24;;;;;;;0.00;0.00;;;;;;;;;;5096401;28;20070;-77
2022/09/30 10:47:52;;;;;;;0.00;0.00;;;;;;;;;;5106555;28;20081;-76
2022/09/30 10:50:21;;;;;;;0.00;0.00;;;;;;;;;;5112165;28;20422;-75
2022/09/30 10:52:52;;;;;;;0.00;0.00;;;;;;;;;;5117278;27;20500;-74
2022/09/30 10:55:19;;;;;;;0.00;0.00;;;;;;;;;;5090060;28;20491;-78
2022/09/30 10:57:46;;;;;;;0.00;0.00;;;;;;;;;;5091592;28;20504;-74
2022/09/30 11:00:18;;;;;;;0.00;0.00;;;;;;;;;;5094068;28;20031;-73
2022/09/30 11:02:54;;;;;;;0.65;0.65;;;;;;;;;;5110584;28;20042;-76
2022/09/30 11:05:23;;;;;;;0.10;0.10;;;;;;;;;;5093070;28;20048;-75
2022/09/30 11:07:54;;;;;;;0.10;0.10;;;;;;;;;;5102888;28;20087;-77
2022/09/30 11:10:31;;;;;;;0.00;0.00;;;;;;;;;;5104114;27;20036;-74
2022/09/30 11:13:04;;;;;;;0.00;0.00;;;;;;;;;;5102774;28;20043;-74
2022/09/30 11:15:32;;;;;;;0.00;0.00;;;;;;;;;;5108759;28;20537;-74
2022/09/30 11:18:05;;;;;;;0.08;0.05;;;;;;;;;;5079718;28;20036;-75
2022/09/30 11:20:39;;;;;;;0.10;0.10;;;;;;;;;;5115618;28;20027;-73
2022/09/30 11:23:26;;;;;;;0.28;0.28;;;;;;;;;;5079945;28;20028;-74
2022/09/30 11:26:11;;;;;;;0.00;0.00;;;;;;;;;;5066066;28;20040;-74
2022/09/30 11:28:49;;;;;;;0.00;0.00;;;;;;;;;;5104420;28;20027;-77
2022/09/30 11:31:22;;;;;;;0.00;0.00;;;;;;;;;;5102630;28;20028;-75
2022/09/30 11:33:57;;;;;;;0.32;0.32;;;;;;;;;;5102403;28;20031;-77
2022/09/30 11:36:24;;;;;;;0.00;0.00;;;;;;;;;;5092490;28;20027;-77
2022/09/30 11:39:06;;;;;;;0.38;0.30;;;;;;;;;;5112032;28;20028;-75
2022/09/30 11:41:41;;;;;;;0.75;0.75;;;;;;;;;;5108853;28;20044;-75
2022/09/30 11:44:28;;;;;;;0.00;0.00;;;;;;;;;;5118263;28;20083;-74
2022/09/30 11:46:55;;;;;;;0.00;0.00;;;;;;;;;;5121595;28;20034;-76
2022/09/30 11:49:27;;;;;;;0.13;0.13;;;;;;;;;;5119292;28;20152;-75
2022/09/30 11:51:56;;;;;;;0.00;0.00;;;;;;;;;;5110462;28;20042;-76
2022/09/30 11:54:47;;;;;;;0.00;0.00;;;;;;;;;;5110664;28;20074;-76
2022/09/30 11:57:21;;;;;;;0.00;0.00;;;;;;;;;;5107795;28;20082;-75
2022/09/30 11:59:51;;;;;;;0.00;0.00;;;;;;;;;;5121761;28;20008;-74
2022/09/30 12:02:39;;;;;;;0.60;0.60;;;;;;;;;;5114727;28;20020;-74
2022/09/30 12:05:14;;;;;;;0.00;0.00;;;;;;;;;;5107984;28;20031;-77
2022/09/30 12:07:44;;;;;;;0.00;0.00;;;;;;;;;;5105825;27;20101;-75
2022/09/30 12:10:26;;;;;;;0.22;0.22;;;;;;;;;;5103192;27;20098;-74
2022/09/30 12:12:57;;;;;;;0.30;0.30;;;;;;;;;;5111977;28;20075;-74
2022/09/30 12:15:25;;;;;;;0.13;0.13;;;;;;;;;;5101398;28;20079;-75
2022/09/30 12:18:00;;;;;;;0.00;0.00;;;;;;;;;;5102984;28;20020;-74
2022/09/30 12:20:32;;;;;;;0.00;0.00;;;;;;;;;;5104240;28;20093;-75
2022/09/30 12:23:19;;;;;;;3.97;0.98;;;;;;;;;;5103524;27;20028;-73
2022/09/30 12:25:49;;;;;;;0.00;0.00;;;;;;;;;;5104881;28;20023;-74
2022/09/30 12:31:31;;;;;;;0.00;0.00;;;;;;;;;;5104055;28;20051;-75
2022/09/30 12:34:04;;;;;;;0.00;0.00;;;;;;;;;;5118086;28;20102;-74
2022/09/30 12:36:39;;;;;;;0.00;0.00;;;;;;;;;;5105831;28;20020;-74
2022/09/30 12:39:08;;;;;;;0.00;0.00;;;;;;;;;;5121230;27;20501;-74
2022/09/30 12:41:54;;;;;;;0.00;0.00;;;;;;;;;;5124500;27;20039;-75
2022/09/30 12:44:26;;;;;;;0.00;0.00;;;;;;;;;;5107137;27;20457;-75
2022/09/30 12:46:58;;;;;;;5.60;1.35;;;;;;;;;;5130323;27;20039;-75
2022/09/30 12:49:27;;;;;;;0.00;0.00;;;;;;;;;;5117875;27;20378;-75
2022/09/30 12:51:55;;;;;;;0.00;0.00;;;;;;;;;;5131003;27;20354;-75
2022/09/30 12:54:27;;;;;;;0.00;0.00;;;;;;;;;;5114834;28;20020;-75
2022/09/30 12:56:59;;;;;;;0.00;0.00;;;;;;;;;;5118622;27;20489;-76
2022/09/30 12:59:31;;;;;;;0.00;0.00;;;;;;;;;;5141502;27;20031;-74
2022/09/30 13:01:58;;;;;;;0.00;0.00;;;;;;;;;;5142292;27;20019;-74
2022/09/30 13:04:38;;;;;;;0.00;0.00;;;;;;;;;;5113171;27;20068;-74
2022/09/30 13:07:07;;;;;;;0.00;0.00;;;;;;;;;;5115230;27;20538;-75
2022/09/30 13:09:52;;;;;;;0.30;0.25;;;;;;;;;;5124790;27;20035;-75
2022/09/30 13:12:24;;;;;;;1.55;1.55;;;;;;;;;;5103565;27;20030;-74
2022/09/30 13:15:11;;;;;;;0.00;0.00;;;;;;;;;;5107482;28;20036;-74
2022/09/30 13:17:37;;;;;;;0.00;0.00;;;;;;;;;;5104144;27;20087;-74
2022/09/30 13:20:24;;;;;;;0.10;0.10;;;;;;;;;;5123343;27;20028;-75
2022/09/30 13:22:54;;;;;;;0.38;0.38;;;;;;;;;;5098660;28;20028;-75
2022/09/30 13:25:20;;;;;;;0.00;0.00;;;;;;;;;;5119011;27;20080;-74
2022/09/30 13:27:52;;;;;;;0.25;0.25;;;;;;;;;;5116937;28;20048;-75
2022/09/30 13:30:19;;;;;;;0.30;0.30;;;;;;;;;;5120833;27;20024;-75
2022/09/30 13:32:46;;;;;;;0.32;0.32;;;;;;;;;;5134491;27;20099;-75
2022/09/30 13:35:39;;;;;;;0.00;0.00;;;;;;;;;;5125197;27;20042;-75
2022/09/30 13:38:28;;;;;;;0.98;0.98;;;;;;;;;;5130259;27;20360;-75
2022/09/30 13:40:54;;;;;;;0.00;0.00;;;;;;;;;;5112867;28;20069;-74
2022/09/30 13:43:24;;;;;;;0.38;0.38;;;;;;;;;;5121608;27;20027;-74
2022/09/30 13:45:51;;;;;;;2.95;2.78;;;;;;;;;;5119823;27;20059;-74
2022/09/30 13:48:21;;;;;;;0.30;0.30;;;;;;;;;;5116154;28;20016;-74
2022/09/30 13:50:49;;;;;;;0.00;0.00;;;;;;;;;;5119561;27;20073;-74
2022/09/30 13:53:36;;;;;;;0.95;0.95;;;;;;;;;;5123320;27;20024;-73
2022/09/30 13:56:07;;;;;;;0.00;0.00;;;;;;;;;;5104004;27;20070;-74
2022/09/30 13:58:33;;;;;;;0.30;0.30;;;;;;;;;;5125980;27;20444;-75
2022/09/30 14:01:03;;;;;;;4.38;4.18;;;;;;;;;;5129690;27;20106;-75
2022/09/30 14:03:56;;;;;;;0.00;0.00;;;;;;;;;;5134637;27;20373;-72
2022/09/30 14:06:40;;;;;;;0.30;0.30;;;;;;;;;;5124937;27;20180;-74
2022/09/30 14:09:10;;;;;;;0.00;0.00;;;;;;;;;;5113892;27;20027;-74
2022/09/30 14:11:45;;;;;;;0.52;0.52;;;;;;;;;;5127754;27;20023;-73
2022/09/30 14:14:38;;;;;;;0.30;0.30;;;;;;;;;;5135422;27;20030;-74
2022/09/30 14:17:21;;;;;;;0.00;0.00;;;;;;;;;;5126797;27;20042;-73
2022/09/30 14:19:54;;;;;;;0.00;0.00;;;;;;;;;;5117966;27;20023;-75
2022/09/30 14:22:25;;;;;;;0.00;0.00;;;;;;;;;;5135605;27;20023;-74
2022/09/30 14:24:51;;;;;;;0.90;0.90;;;;;;;;;;5138021;27;20380;-74
2022/09/30 14:27:24;;;;;;;0.93;0.93;;;;;;;;;;5128795;27;20488;-74
2022/09/30 14:30:00;;;;;;;0.00;0.00;;;;;;;;;;5099507;27;20458;-74
2022/09/30 14:32:28;;;;;;;6.43;3.65;;;;;;;;;;5131548;27;20056;-74
2022/09/30 14:34:55;;;;;;;2.50;2.40;;;;;;;;;;5155152;27;20023;-73
2022/09/30 14:37:30;;;;;;;0.32;0.32;;;;;;;;;;5137547;27;20388;-74
2022/09/30 14:39:56;;;;;;;0.00;0.00;;;;;;;;;;5136906;27;20236;-74
2022/09/30 14:42:40;;;;;;;0.30;0.30;;;;;;;;;;5137846;27;20023;-75
2022/09/30 14:45:08;;;;;;;0.00;0.00;;;;;;;;;;5119906;27;20099;-76
2022/09/30 14:47:37;;;;;;;0.13;0.10;;;;;;;;;;5137943;27;20020;-73
2022/09/30 14:50:09;;;;;;;0.80;0.80;;;;;;;;;;5140507;27;20353;-74
2022/09/30 14:52:42;;;;;;;0.45;0.45;;;;;;;;;;5124745;27;20054;-74
2022/09/30 14:55:26;;;;;;;0.40;0.10;;;;;;;;;;5122440;27;20034;-74
2022/09/30 14:57:53;;;;;;;0.13;0.13;;;;;;;;;;5098497;28;20036;-74
2022/09/30 15:00:32;;;;;;;0.10;0.10;;;;;;;;;;5111861;28;20057;-74
2022/09/30 15:02:59;;;;;;;0.10;0.10;;;;;;;;;;5128820;27;20031;-75
2022/09/30 15:05:25;;;;;;;1.20;1.20;;;;;;;;;;5126283;27;20465;-75
2022/09/30 15:07:53;;;;;;;0.10;0.10;;;;;;;;;;5128059;27;20022;-75
2022/09/30 15:10:21;;;;;;;0.15;0.15;;;;;;;;;;5133479;27;20264;-75